KPAN

Payson Airport

Payson, Arizona, USA
METAR KPAN 210415Z AUTO 26010KT 6SM -SN BKN003 BKN007 OVC011 M01/M01 A2990 RMK AO2
Observed Flight Rules
Jan-21 @ 04:15 UTC (34 minutes ago) Instrument Flight Rules
Wind Visibility Clouds Conditions
260° at 10 knots 6 miles
  • Broken at 300' AGL
  • Broken at 700' AGL
  • Overcast at 1,100' AGL
  • Light Snow
Temperatures Readings
Current -1°C / 30°F
Dewpoint -1°C / 30°F
Humidity 100%
Altimeter 29.9" Hg
Pressure 1013 hPa
Elevation 1572
METAR KPAN 210415Z AUTO 26010KT 6SM -SN BKN003 BKN007 OVC011 M01/M01 A2990 RMK AO2
Observed Flight Rules
Jan-21 @ 04:15 UTC
(34 minutes ago)
LIFR
Wind Visibility
260° at 10 knots 6 miles
Clouds
  • Broken at 300' AGL
  • Broken at 700' AGL
  • Overcast at 1,100' AGL
Conditions
  • Light Snow
Temperature Dewpoint
-1°C / 30°F -1°C / 30°F
Humidity Altimeter Pressure
100% 29.9" Hg 1013 hPa